sensor_id;sensor_type;location;lat;lon;timestamp;P1;durP1;ratioP1;P2;durP2;ratioP2
74612;SDS011;63119;51.788;8.824;2023-04-09T00:01:24;32.20;;;14.75;;
74612;SDS011;63119;51.788;8.824;2023-04-09T00:03:49;33.60;;;14.17;;
74612;SDS011;63119;51.788;8.824;2023-04-09T00:06:15;35.50;;;15.40;;
74612;SDS011;63119;51.788;8.824;2023-04-09T00:08:40;28.37;;;12.97;;
74612;SDS011;63119;51.788;8.824;2023-04-09T00:11:05;32.00;;;13.57;;
74612;SDS011;63119;51.788;8.824;2023-04-09T00:13:30;33.57;;;13.87;;
74612;SDS011;63119;51.788;8.824;2023-04-09T00:15:56;33.00;;;14.90;;
74612;SDS011;63119;51.788;8.824;2023-04-09T00:18:21;34.25;;;14.38;;
74612;SDS011;63119;51.788;8.824;2023-04-09T00:20:46;37.10;;;14.33;;
74612;SDS011;63119;51.788;8.824;2023-04-09T00:23:12;33.20;;;13.93;;
74612;SDS011;63119;51.788;8.824;2023-04-09T00:25:37;36.27;;;16.90;;
74612;SDS011;63119;51.788;8.824;2023-04-09T00:28:02;43.77;;;17.63;;
74612;SDS011;63119;51.788;8.824;2023-04-09T00:30:28;44.70;;;17.87;;
74612;SDS011;63119;51.788;8.824;2023-04-09T00:32:54;41.45;;;17.58;;
74612;SDS011;63119;51.788;8.824;2023-04-09T00:35:19;40.78;;;17.30;;
74612;SDS011;63119;51.788;8.824;2023-04-09T00:37:45;45.67;;;18.80;;
74612;SDS011;63119;51.788;8.824;2023-04-09T00:40:10;49.30;;;21.83;;
74612;SDS011;63119;51.788;8.824;2023-04-09T00:42:36;63.40;;;25.00;;
74612;SDS011;63119;51.788;8.824;2023-04-09T00:45:02;55.38;;;22.77;;
74612;SDS011;63119;51.788;8.824;2023-04-09T00:47:28;59.28;;;25.73;;
74612;SDS011;63119;51.788;8.824;2023-04-09T00:49:54;50.20;;;23.15;;
74612;SDS011;63119;51.788;8.824;2023-04-09T00:52:21;60.20;;;22.85;;
74612;SDS011;63119;51.788;8.824;2023-04-09T00:54:48;56.60;;;24.25;;
74612;SDS011;63119;51.788;8.824;2023-04-09T00:57:14;48.55;;;21.75;;
74612;SDS011;63119;51.788;8.824;2023-04-09T00:59:40;51.17;;;22.35;;
74612;SDS011;63119;51.788;8.824;2023-04-09T01:02:07;56.00;;;23.40;;
74612;SDS011;63119;51.788;8.824;2023-04-09T01:04:32;62.90;;;26.07;;
74612;SDS011;63119;51.788;8.824;2023-04-09T01:07:00;60.22;;;24.92;;
74612;SDS011;63119;51.788;8.824;2023-04-09T01:09:34;53.80;;;23.80;;
74612;SDS011;63119;51.788;8.824;2023-04-09T01:12:14;51.15;;;20.67;;
74612;SDS011;63119;51.788;8.824;2023-04-09T01:14:53;48.92;;;21.63;;
74612;SDS011;63119;51.788;8.824;2023-04-09T01:17:25;49.45;;;21.52;;
74612;SDS011;63119;51.788;8.824;2023-04-09T01:20:08;54.67;;;21.67;;
74612;SDS011;63119;51.788;8.824;2023-04-09T01:22:41;48.20;;;20.77;;
74612;SDS011;63119;51.788;8.824;2023-04-09T01:28:13;56.63;;;22.25;;
74612;SDS011;63119;51.788;8.824;2023-04-09T01:30:42;49.38;;;21.58;;
74612;SDS011;63119;51.788;8.824;2023-04-09T01:33:12;53.15;;;21.75;;
74612;SDS011;63119;51.788;8.824;2023-04-09T01:35:40;48.92;;;22.02;;
74612;SDS011;63119;51.788;8.824;2023-04-09T01:38:07;56.75;;;21.50;;
74612;SDS011;63119;51.788;8.824;2023-04-09T01:40:34;53.40;;;21.40;;
74612;SDS011;63119;51.788;8.824;2023-04-09T01:43:00;56.15;;;21.15;;
74612;SDS011;63119;51.788;8.824;2023-04-09T01:45:26;52.58;;;21.83;;
74612;SDS011;63119;51.788;8.824;2023-04-09T01:47:51;51.85;;;22.45;;
74612;SDS011;63119;51.788;8.824;2023-04-09T01:50:18;54.88;;;21.42;;
74612;SDS011;63119;51.788;8.824;2023-04-09T01:52:44;53.70;;;22.00;;
74612;SDS011;63119;51.788;8.824;2023-04-09T01:55:09;56.42;;;22.25;;
74612;SDS011;63119;51.788;8.824;2023-04-09T01:57:34;52.33;;;22.77;;
74612;SDS011;63119;51.788;8.824;2023-04-09T02:00:00;57.30;;;23.23;;
74612;SDS011;63119;51.788;8.824;2023-04-09T02:02:32;51.80;;;22.67;;
74612;SDS011;63119;51.788;8.824;2023-04-09T02:05:06;51.20;;;22.30;;
74612;SDS011;63119;51.788;8.824;2023-04-09T02:07:36;54.72;;;24.45;;
74612;SDS011;63119;51.788;8.824;2023-04-09T02:10:04;48.13;;;19.98;;
74612;SDS011;63119;51.788;8.824;2023-04-09T02:12:32;53.08;;;22.13;;
74612;SDS011;63119;51.788;8.824;2023-04-09T02:15:01;53.97;;;23.70;;
74612;SDS011;63119;51.788;8.824;2023-04-09T02:17:28;58.38;;;23.83;;
74612;SDS011;63119;51.788;8.824;2023-04-09T02:19:53;57.80;;;22.80;;
74612;SDS011;63119;51.788;8.824;2023-04-09T02:22:18;52.67;;;22.73;;
74612;SDS011;63119;51.788;8.824;2023-04-09T02:24:44;52.17;;;22.87;;
74612;SDS011;63119;51.788;8.824;2023-04-09T02:27:10;54.28;;;22.05;;
74612;SDS011;63119;51.788;8.824;2023-04-09T02:29:36;51.57;;;21.47;;
74612;SDS011;63119;51.788;8.824;2023-04-09T02:32:03;53.25;;;21.00;;
74612;SDS011;63119;51.788;8.824;2023-04-09T02:34:28;50.97;;;22.73;;
74612;SDS011;63119;51.788;8.824;2023-04-09T02:36:53;58.60;;;23.03;;
74612;SDS011;63119;51.788;8.824;2023-04-09T02:39:19;57.83;;;22.73;;
74612;SDS011;63119;51.788;8.824;2023-04-09T02:41:44;52.80;;;21.50;;
74612;SDS011;63119;51.788;8.824;2023-04-09T02:44:09;49.03;;;20.73;;
74612;SDS011;63119;51.788;8.824;2023-04-09T02:46:34;45.83;;;21.93;;
74612;SDS011;63119;51.788;8.824;2023-04-09T02:49:00;53.13;;;21.80;;
74612;SDS011;63119;51.788;8.824;2023-04-09T02:51:25;49.80;;;22.10;;
74612;SDS011;63119;51.788;8.824;2023-04-09T02:53:51;47.80;;;21.23;;
74612;SDS011;63119;51.788;8.824;2023-04-09T02:56:16;51.72;;;21.58;;
74612;SDS011;63119;51.788;8.824;2023-04-09T02:58:42;44.90;;;20.20;;
74612;SDS011;63119;51.788;8.824;2023-04-09T03:01:07;51.87;;;21.73;;
74612;SDS011;63119;51.788;8.824;2023-04-09T03:03:32;47.17;;;20.87;;
74612;SDS011;63119;51.788;8.824;2023-04-09T03:05:57;47.63;;;20.97;;
74612;SDS011;63119;51.788;8.824;2023-04-09T03:08:23;44.60;;;20.00;;
74612;SDS011;63119;51.788;8.824;2023-04-09T03:10:48;53.23;;;21.17;;
74612;SDS011;63119;51.788;8.824;2023-04-09T03:13:13;52.17;;;20.07;;
74612;SDS011;63119;51.788;8.824;2023-04-09T03:15:38;42.38;;;19.83;;
74612;SDS011;63119;51.788;8.824;2023-04-09T03:18:04;40.93;;;18.23;;
74612;SDS011;63119;51.788;8.824;2023-04-09T03:20:29;46.30;;;19.33;;
74612;SDS011;63119;51.788;8.824;2023-04-09T03:22:54;45.78;;;18.95;;
74612;SDS011;63119;51.788;8.824;2023-04-09T03:25:20;44.30;;;19.60;;
74612;SDS011;63119;51.788;8.824;2023-04-09T03:27:45;47.22;;;19.58;;
74612;SDS011;63119;51.788;8.824;2023-04-09T03:30:11;46.47;;;19.50;;
74612;SDS011;63119;51.788;8.824;2023-04-09T03:32:36;46.53;;;18.35;;
74612;SDS011;63119;51.788;8.824;2023-04-09T03:35:01;48.33;;;19.17;;
74612;SDS011;63119;51.788;8.824;2023-04-09T03:37:27;45.10;;;18.17;;
74612;SDS011;63119;51.788;8.824;2023-04-09T03:39:52;51.47;;;19.83;;
74612;SDS011;63119;51.788;8.824;2023-04-09T03:42:17;46.27;;;18.47;;
74612;SDS011;63119;51.788;8.824;2023-04-09T03:44:42;47.90;;;20.03;;
74612;SDS011;63119;51.788;8.824;2023-04-09T03:47:08;42.70;;;19.53;;
74612;SDS011;63119;51.788;8.824;2023-04-09T03:49:34;42.33;;;18.40;;
74612;SDS011;63119;51.788;8.824;2023-04-09T03:51:59;44.42;;;19.88;;
74612;SDS011;63119;51.788;8.824;2023-04-09T03:54:27;41.10;;;18.97;;
74612;SDS011;63119;51.788;8.824;2023-04-09T03:56:53;42.13;;;19.08;;
74612;SDS011;63119;51.788;8.824;2023-04-09T03:59:20;41.63;;;18.83;;
74612;SDS011;63119;51.788;8.824;2023-04-09T04:01:45;44.73;;;18.20;;
74612;SDS011;63119;51.788;8.824;2023-04-09T04:04:10;36.60;;;17.50;;
74612;SDS011;63119;51.788;8.824;2023-04-09T04:06:36;45.43;;;19.03;;
74612;SDS011;63119;51.788;8.824;2023-04-09T04:09:01;42.17;;;18.20;;
74612;SDS011;63119;51.788;8.824;2023-04-09T04:11:26;43.87;;;17.77;;
74612;SDS011;63119;51.788;8.824;2023-04-09T04:13:51;42.87;;;19.07;;
74612;SDS011;63119;51.788;8.824;2023-04-09T04:16:17;46.17;;;18.90;;
74612;SDS011;63119;51.788;8.824;2023-04-09T04:18:42;46.23;;;18.83;;
74612;SDS011;63119;51.788;8.824;2023-04-09T04:21:13;46.77;;;19.03;;
74612;SDS011;63119;51.788;8.824;2023-04-09T04:23:39;46.92;;;19.08;;
74612;SDS011;63119;51.788;8.824;2023-04-09T04:26:08;47.92;;;20.58;;
74612;SDS011;63119;51.788;8.824;2023-04-09T04:28:35;41.00;;;18.70;;
74612;SDS011;63119;51.788;8.824;2023-04-09T04:31:00;45.83;;;18.77;;
74612;SDS011;63119;51.788;8.824;2023-04-09T04:33:26;42.97;;;18.50;;
74612;SDS011;63119;51.788;8.824;2023-04-09T04:35:51;50.20;;;20.37;;
74612;SDS011;63119;51.788;8.824;2023-04-09T04:38:16;42.73;;;19.70;;
74612;SDS011;63119;51.788;8.824;2023-04-09T04:40:42;44.00;;;18.55;;
74612;SDS011;63119;51.788;8.824;2023-04-09T04:43:07;43.80;;;17.07;;
74612;SDS011;63119;51.788;8.824;2023-04-09T04:45:32;45.47;;;18.23;;
74612;SDS011;63119;51.788;8.824;2023-04-09T04:47:57;35.67;;;16.80;;
74612;SDS011;63119;51.788;8.824;2023-04-09T04:50:23;37.27;;;17.67;;
74612;SDS011;63119;51.788;8.824;2023-04-09T04:52:48;38.10;;;17.90;;
74612;SDS011;63119;51.788;8.824;2023-04-09T04:55:13;39.53;;;17.48;;
74612;SDS011;63119;51.788;8.824;2023-04-09T04:57:39;40.35;;;16.98;;
74612;SDS011;63119;51.788;8.824;2023-04-09T05:00:04;38.70;;;17.03;;
74612;SDS011;63119;51.788;8.824;2023-04-09T05:02:30;37.03;;;16.63;;
74612;SDS011;63119;51.788;8.824;2023-04-09T05:04:55;36.13;;;16.40;;
74612;SDS011;63119;51.788;8.824;2023-04-09T05:07:20;38.50;;;16.27;;
74612;SDS011;63119;51.788;8.824;2023-04-09T05:09:46;43.00;;;17.70;;
74612;SDS011;63119;51.788;8.824;2023-04-09T05:12:11;36.10;;;16.33;;
74612;SDS011;63119;51.788;8.824;2023-04-09T05:14:37;39.50;;;17.33;;
74612;SDS011;63119;51.788;8.824;2023-04-09T05:17:02;34.73;;;16.13;;
74612;SDS011;63119;51.788;8.824;2023-04-09T05:19:28;36.27;;;16.63;;
74612;SDS011;63119;51.788;8.824;2023-04-09T05:21:53;38.07;;;16.63;;
74612;SDS011;63119;51.788;8.824;2023-04-09T05:24:18;35.80;;;15.93;;
74612;SDS011;63119;51.788;8.824;2023-04-09T05:26:43;37.27;;;16.30;;
74612;SDS011;63119;51.788;8.824;2023-04-09T05:29:09;38.65;;;16.35;;
74612;SDS011;63119;51.788;8.824;2023-04-09T05:31:34;34.53;;;16.30;;
74612;SDS011;63119;51.788;8.824;2023-04-09T05:34:00;33.65;;;15.30;;
74612;SDS011;63119;51.788;8.824;2023-04-09T05:36:25;37.77;;;15.90;;
74612;SDS011;63119;51.788;8.824;2023-04-09T05:38:51;32.15;;;15.95;;
74612;SDS011;63119;51.788;8.824;2023-04-09T05:41:16;34.53;;;15.30;;
74612;SDS011;63119;51.788;8.824;2023-04-09T05:43:41;33.57;;;15.40;;
74612;SDS011;63119;51.788;8.824;2023-04-09T05:46:07;32.88;;;14.95;;
74612;SDS011;63119;51.788;8.824;2023-04-09T05:48:35;36.30;;;15.33;;
74612;SDS011;63119;51.788;8.824;2023-04-09T05:51:01;34.58;;;15.75;;
74612;SDS011;63119;51.788;8.824;2023-04-09T05:53:26;33.47;;;14.77;;
74612;SDS011;63119;51.788;8.824;2023-04-09T05:55:51;32.77;;;15.03;;
74612;SDS011;63119;51.788;8.824;2023-04-09T05:58:17;32.33;;;14.00;;
74612;SDS011;63119;51.788;8.824;2023-04-09T06:00:42;30.77;;;14.18;;
74612;SDS011;63119;51.788;8.824;2023-04-09T06:03:08;34.92;;;15.60;;
74612;SDS011;63119;51.788;8.824;2023-04-09T06:05:43;30.35;;;14.52;;
74612;SDS011;63119;51.788;8.824;2023-04-09T06:08:12;32.05;;;14.85;;
74612;SDS011;63119;51.788;8.824;2023-04-09T06:10:38;31.08;;;13.55;;
74612;SDS011;63119;51.788;8.824;2023-04-09T06:13:03;30.73;;;14.27;;
74612;SDS011;63119;51.788;8.824;2023-04-09T06:15:28;27.23;;;13.40;;
74612;SDS011;63119;51.788;8.824;2023-04-09T06:17:53;29.17;;;13.70;;
74612;SDS011;63119;51.788;8.824;2023-04-09T06:20:19;30.33;;;13.85;;
74612;SDS011;63119;51.788;8.824;2023-04-09T06:22:45;31.75;;;14.32;;
74612;SDS011;63119;51.788;8.824;2023-04-09T06:25:10;35.27;;;14.83;;
74612;SDS011;63119;51.788;8.824;2023-04-09T06:27:36;27.05;;;14.15;;
74612;SDS011;63119;51.788;8.824;2023-04-09T06:30:01;29.17;;;13.33;;
74612;SDS011;63119;51.788;8.824;2023-04-09T06:32:26;33.20;;;13.73;;
74612;SDS011;63119;51.788;8.824;2023-04-09T06:34:51;30.43;;;14.00;;
74612;SDS011;63119;51.788;8.824;2023-04-09T06:37:17;30.30;;;13.52;;
74612;SDS011;63119;51.788;8.824;2023-04-09T06:39:42;27.77;;;13.13;;
74612;SDS011;63119;51.788;8.824;2023-04-09T06:42:07;27.17;;;13.67;;
74612;SDS011;63119;51.788;8.824;2023-04-09T06:44:33;28.17;;;14.40;;
74612;SDS011;63119;51.788;8.824;2023-04-09T06:46:58;31.02;;;14.43;;
74612;SDS011;63119;51.788;8.824;2023-04-09T06:49:24;28.95;;;13.52;;
74612;SDS011;63119;51.788;8.824;2023-04-09T06:51:49;31.02;;;14.43;;
74612;SDS011;63119;51.788;8.824;2023-04-09T06:54:17;30.40;;;15.55;;
74612;SDS011;63119;51.788;8.824;2023-04-09T06:56:42;26.45;;;14.85;;
74612;SDS011;63119;51.788;8.824;2023-04-09T06:59:08;31.03;;;15.70;;
74612;SDS011;63119;51.788;8.824;2023-04-09T07:01:33;30.07;;;15.90;;
74612;SDS011;63119;51.788;8.824;2023-04-09T07:04:01;30.88;;;15.50;;
74612;SDS011;63119;51.788;8.824;2023-04-09T07:06:26;32.47;;;15.40;;
74612;SDS011;63119;51.788;8.824;2023-04-09T07:08:52;29.83;;;15.02;;
74612;SDS011;63119;51.788;8.824;2023-04-09T07:11:17;33.90;;;15.00;;
74612;SDS011;63119;51.788;8.824;2023-04-09T07:13:42;28.93;;;14.63;;
74612;SDS011;63119;51.788;8.824;2023-04-09T07:16:07;29.70;;;14.83;;
74612;SDS011;63119;51.788;8.824;2023-04-09T07:18:33;29.03;;;14.30;;
74612;SDS011;63119;51.788;8.824;2023-04-09T07:20:58;28.27;;;14.27;;
74612;SDS011;63119;51.788;8.824;2023-04-09T07:23:23;32.43;;;15.37;;
74612;SDS011;63119;51.788;8.824;2023-04-09T07:25:48;28.37;;;13.43;;
74612;SDS011;63119;51.788;8.824;2023-04-09T07:28:14;26.40;;;14.07;;
74612;SDS011;63119;51.788;8.824;2023-04-09T07:30:39;23.43;;;12.80;;
74612;SDS011;63119;51.788;8.824;2023-04-09T07:33:05;28.08;;;14.60;;
74612;SDS011;63119;51.788;8.824;2023-04-09T07:35:30;30.10;;;14.60;;
74612;SDS011;63119;51.788;8.824;2023-04-09T07:37:57;25.45;;;13.70;;
74612;SDS011;63119;51.788;8.824;2023-04-09T07:40:22;31.00;;;14.63;;
74612;SDS011;63119;51.788;8.824;2023-04-09T07:42:48;30.70;;;14.53;;
74612;SDS011;63119;51.788;8.824;2023-04-09T07:45:13;28.08;;;13.32;;
74612;SDS011;63119;51.788;8.824;2023-04-09T07:47:39;27.20;;;13.80;;
74612;SDS011;63119;51.788;8.824;2023-04-09T07:50:05;25.33;;;13.88;;
74612;SDS011;63119;51.788;8.824;2023-04-09T07:52:31;25.05;;;12.65;;
74612;SDS011;63119;51.788;8.824;2023-04-09T07:54:56;30.87;;;15.03;;
74612;SDS011;63119;51.788;8.824;2023-04-09T07:57:21;27.20;;;13.27;;
74612;SDS011;63119;51.788;8.824;2023-04-09T07:59:47;26.90;;;12.95;;
74612;SDS011;63119;51.788;8.824;2023-04-09T08:02:12;27.88;;;12.77;;
74612;SDS011;63119;51.788;8.824;2023-04-09T08:04:38;25.05;;;13.25;;
74612;SDS011;63119;51.788;8.824;2023-04-09T08:07:04;23.17;;;11.63;;
74612;SDS011;63119;51.788;8.824;2023-04-09T08:09:29;23.00;;;12.35;;
74612;SDS011;63119;51.788;8.824;2023-04-09T08:11:54;23.97;;;12.53;;
74612;SDS011;63119;51.788;8.824;2023-04-09T08:14:19;23.60;;;12.10;;
74612;SDS011;63119;51.788;8.824;2023-04-09T08:16:45;21.63;;;10.87;;
74612;SDS011;63119;51.788;8.824;2023-04-09T08:19:11;21.77;;;11.25;;
74612;SDS011;63119;51.788;8.824;2023-04-09T08:21:37;21.10;;;10.63;;
74612;SDS011;63119;51.788;8.824;2023-04-09T08:24:04;23.65;;;11.05;;
74612;SDS011;63119;51.788;8.824;2023-04-09T08:26:30;21.95;;;10.65;;
74612;SDS011;63119;51.788;8.824;2023-04-09T08:28:56;22.52;;;10.60;;
74612;SDS011;63119;51.788;8.824;2023-04-09T08:31:21;22.50;;;10.10;;
74612;SDS011;63119;51.788;8.824;2023-04-09T08:33:47;23.17;;;10.73;;
74612;SDS011;63119;51.788;8.824;2023-04-09T08:36:12;20.50;;;10.07;;
74612;SDS011;63119;51.788;8.824;2023-04-09T08:38:37;21.43;;;10.07;;
74612;SDS011;63119;51.788;8.824;2023-04-09T08:41:03;19.37;;;10.00;;
74612;SDS011;63119;51.788;8.824;2023-04-09T08:43:29;19.80;;;10.13;;
74612;SDS011;63119;51.788;8.824;2023-04-09T08:45:56;18.27;;;9.57;;
74612;SDS011;63119;51.788;8.824;2023-04-09T08:48:23;20.75;;;9.60;;
74612;SDS011;63119;51.788;8.824;2023-04-09T08:50:49;17.98;;;9.30;;
74612;SDS011;63119;51.788;8.824;2023-04-09T08:53:14;17.00;;;8.70;;
74612;SDS011;63119;51.788;8.824;2023-04-09T08:55:43;16.90;;;9.05;;
74612;SDS011;63119;51.788;8.824;2023-04-09T08:58:09;16.98;;;8.95;;
74612;SDS011;63119;51.788;8.824;2023-04-09T09:00:35;17.77;;;9.23;;
74612;SDS011;63119;51.788;8.824;2023-04-09T09:05:43;16.48;;;8.77;;
74612;SDS011;63119;51.788;8.824;2023-04-09T09:08:10;12.80;;;7.68;;
74612;SDS011;63119;51.788;8.824;2023-04-09T09:10:46;16.33;;;9.00;;
74612;SDS011;63119;51.788;8.824;2023-04-09T09:13:15;15.87;;;8.70;;
74612;SDS011;63119;51.788;8.824;2023-04-09T09:15:41;15.60;;;8.05;;
74612;SDS011;63119;51.788;8.824;2023-04-09T09:18:06;16.10;;;8.30;;
74612;SDS011;63119;51.788;8.824;2023-04-09T09:20:31;14.83;;;7.60;;
74612;SDS011;63119;51.788;8.824;2023-04-09T09:22:56;16.30;;;8.52;;
74612;SDS011;63119;51.788;8.824;2023-04-09T09:25:22;14.77;;;7.97;;
74612;SDS011;63119;51.788;8.824;2023-04-09T09:27:49;14.80;;;8.23;;
74612;SDS011;63119;51.788;8.824;2023-04-09T09:30:22;18.45;;;7.88;;
74612;SDS011;63119;51.788;8.824;2023-04-09T09:33:07;16.20;;;7.63;;
74612;SDS011;63119;51.788;8.824;2023-04-09T09:35:46;14.23;;;7.53;;
74612;SDS011;63119;51.788;8.824;2023-04-09T09:38:15;14.57;;;7.85;;
74612;SDS011;63119;51.788;8.824;2023-04-09T09:40:42;12.02;;;6.03;;
74612;SDS011;63119;51.788;8.824;2023-04-09T09:43:07;14.60;;;7.10;;
74612;SDS011;63119;51.788;8.824;2023-04-09T09:45:33;16.55;;;7.45;;
74612;SDS011;63119;51.788;8.824;2023-04-09T09:48:00;13.43;;;6.90;;
74612;SDS011;63119;51.788;8.824;2023-04-09T09:50:26;11.77;;;6.68;;
74612;SDS011;63119;51.788;8.824;2023-04-09T09:52:58;12.55;;;7.32;;
74612;SDS011;63119;51.788;8.824;2023-04-09T09:55:28;14.43;;;7.63;;
74612;SDS011;63119;51.788;8.824;2023-04-09T09:57:55;12.88;;;6.75;;
74612;SDS011;63119;51.788;8.824;2023-04-09T10:00:24;11.63;;;6.47;;
74612;SDS011;63119;51.788;8.824;2023-04-09T10:02:53;11.98;;;5.97;;
74612;SDS011;63119;51.788;8.824;2023-04-09T10:05:21;10.07;;;6.15;;
74612;SDS011;63119;51.788;8.824;2023-04-09T10:07:50;12.00;;;6.70;;
74612;SDS011;63119;51.788;8.824;2023-04-09T10:10:18;14.90;;;7.10;;
74612;SDS011;63119;51.788;8.824;2023-04-09T10:12:43;14.93;;;7.53;;
74612;SDS011;63119;51.788;8.824;2023-04-09T10:15:09;12.00;;;6.72;;
74612;SDS011;63119;51.788;8.824;2023-04-09T10:17:35;12.27;;;6.03;;
74612;SDS011;63119;51.788;8.824;2023-04-09T10:22:37;12.20;;;6.45;;
74612;SDS011;63119;51.788;8.824;2023-04-09T10:25:03;13.13;;;6.63;;
74612;SDS011;63119;51.788;8.824;2023-04-09T10:27:30;11.27;;;5.68;;
74612;SDS011;63119;51.788;8.824;2023-04-09T10:29:56;13.18;;;6.88;;
74612;SDS011;63119;51.788;8.824;2023-04-09T10:32:23;10.88;;;5.95;;
74612;SDS011;63119;51.788;8.824;2023-04-09T10:37:20;11.60;;;6.15;;
74612;SDS011;63119;51.788;8.824;2023-04-09T10:39:47;11.60;;;6.80;;
74612;SDS011;63119;51.788;8.824;2023-04-09T10:42:18;12.30;;;6.72;;
74612;SDS011;63119;51.788;8.824;2023-04-09T10:45:02;12.30;;;6.70;;
74612;SDS011;63119;51.788;8.824;2023-04-09T10:47:33;11.35;;;6.20;;
74612;SDS011;63119;51.788;8.824;2023-04-09T10:50:16;11.70;;;6.18;;
74612;SDS011;63119;51.788;8.824;2023-04-09T10:52:43;12.23;;;6.63;;
74612;SDS011;63119;51.788;8.824;2023-04-09T10:55:09;13.95;;;7.30;;
74612;SDS011;63119;51.788;8.824;2023-04-09T10:57:55;12.20;;;6.78;;
74612;SDS011;63119;51.788;8.824;2023-04-09T11:00:20;13.23;;;7.03;;
74612;SDS011;63119;51.788;8.824;2023-04-09T11:05:31;15.35;;;6.95;;
74612;SDS011;63119;51.788;8.824;2023-04-09T11:10:35;13.27;;;7.07;;
74612;SDS011;63119;51.788;8.824;2023-04-09T11:13:01;13.77;;;7.25;;
74612;SDS011;63119;51.788;8.824;2023-04-09T11:15:27;13.80;;;6.53;;
74612;SDS011;63119;51.788;8.824;2023-04-09T11:17:53;12.23;;;6.60;;
74612;SDS011;63119;51.788;8.824;2023-04-09T11:20:19;13.82;;;6.53;;
74612;SDS011;63119;51.788;8.824;2023-04-09T11:22:46;12.50;;;6.97;;
74612;SDS011;63119;51.788;8.824;2023-04-09T11:25:17;11.25;;;6.22;;
74612;SDS011;63119;51.788;8.824;2023-04-09T11:28:03;14.52;;;7.35;;
74612;SDS011;63119;51.788;8.824;2023-04-09T11:30:30;11.52;;;5.97;;
74612;SDS011;63119;51.788;8.824;2023-04-09T11:32:55;12.05;;;6.10;;
74612;SDS011;63119;51.788;8.824;2023-04-09T11:35:21;12.33;;;6.40;;
74612;SDS011;63119;51.788;8.824;2023-04-09T11:37:47;10.50;;;5.68;;
74612;SDS011;63119;51.788;8.824;2023-04-09T11:40:20;13.23;;;6.55;;
74612;SDS011;63119;51.788;8.824;2023-04-09T11:42:48;13.20;;;7.32;;
74612;SDS011;63119;51.788;8.824;2023-04-09T11:45:18;12.60;;;7.25;;
74612;SDS011;63119;51.788;8.824;2023-04-09T11:47:44;12.32;;;7.18;;
74612;SDS011;63119;51.788;8.824;2023-04-09T11:50:11;11.25;;;6.40;;
74612;SDS011;63119;51.788;8.824;2023-04-09T11:52:37;13.30;;;7.28;;
74612;SDS011;63119;51.788;8.824;2023-04-09T11:55:04;13.32;;;7.00;;
74612;SDS011;63119;51.788;8.824;2023-04-09T11:57:43;11.32;;;6.68;;
74612;SDS011;63119;51.788;8.824;2023-04-09T12:00:13;12.73;;;6.40;;
74612;SDS011;63119;51.788;8.824;2023-04-09T12:02:40;10.90;;;6.45;;
74612;SDS011;63119;51.788;8.824;2023-04-09T12:05:08;12.13;;;6.53;;
74612;SDS011;63119;51.788;8.824;2023-04-09T12:07:34;10.13;;;5.93;;
74612;SDS011;63119;51.788;8.824;2023-04-09T12:10:08;11.55;;;6.15;;
74612;SDS011;63119;51.788;8.824;2023-04-09T12:12:41;11.07;;;6.65;;
74612;SDS011;63119;51.788;8.824;2023-04-09T12:17:42;10.98;;;5.95;;
74612;SDS011;63119;51.788;8.824;2023-04-09T12:20:07;10.70;;;6.33;;
74612;SDS011;63119;51.788;8.824;2023-04-09T12:22:33;12.40;;;6.82;;
74612;SDS011;63119;51.788;8.824;2023-04-09T12:25:01;12.88;;;7.13;;
74612;SDS011;63119;51.788;8.824;2023-04-09T12:27:26;12.70;;;6.83;;
74612;SDS011;63119;51.788;8.824;2023-04-09T12:29:51;12.13;;;6.50;;
74612;SDS011;63119;51.788;8.824;2023-04-09T12:32:17;12.70;;;6.80;;
74612;SDS011;63119;51.788;8.824;2023-04-09T12:34:42;12.53;;;7.10;;
74612;SDS011;63119;51.788;8.824;2023-04-09T12:37:07;14.23;;;7.33;;
74612;SDS011;63119;51.788;8.824;2023-04-09T12:39:32;14.03;;;7.17;;
74612;SDS011;63119;51.788;8.824;2023-04-09T12:41:58;12.83;;;7.10;;
74612;SDS011;63119;51.788;8.824;2023-04-09T12:44:23;12.50;;;7.27;;
74612;SDS011;63119;51.788;8.824;2023-04-09T12:46:48;15.47;;;7.37;;
74612;SDS011;63119;51.788;8.824;2023-04-09T12:49:14;12.90;;;7.10;;
74612;SDS011;63119;51.788;8.824;2023-04-09T12:51:39;12.57;;;7.07;;
74612;SDS011;63119;51.788;8.824;2023-04-09T12:54:05;13.52;;;7.15;;
74612;SDS011;63119;51.788;8.824;2023-04-09T12:56:30;15.57;;;8.00;;
74612;SDS011;63119;51.788;8.824;2023-04-09T12:58:56;15.70;;;8.53;;
74612;SDS011;63119;51.788;8.824;2023-04-09T13:01:21;14.60;;;7.37;;
74612;SDS011;63119;51.788;8.824;2023-04-09T13:03:46;13.73;;;8.43;;
74612;SDS011;63119;51.788;8.824;2023-04-09T13:06:11;14.70;;;7.13;;
74612;SDS011;63119;51.788;8.824;2023-04-09T13:08:37;15.00;;;7.75;;
74612;SDS011;63119;51.788;8.824;2023-04-09T13:11:02;13.67;;;7.90;;
74612;SDS011;63119;51.788;8.824;2023-04-09T13:13:28;15.02;;;7.68;;
74612;SDS011;63119;51.788;8.824;2023-04-09T13:15:53;13.15;;;7.50;;
74612;SDS011;63119;51.788;8.824;2023-04-09T13:18:18;15.03;;;7.00;;
74612;SDS011;63119;51.788;8.824;2023-04-09T13:20:44;15.17;;;7.63;;
74612;SDS011;63119;51.788;8.824;2023-04-09T13:23:09;15.17;;;7.47;;
74612;SDS011;63119;51.788;8.824;2023-04-09T13:25:34;14.90;;;8.20;;
74612;SDS011;63119;51.788;8.824;2023-04-09T13:27:59;15.83;;;8.90;;
74612;SDS011;63119;51.788;8.824;2023-04-09T13:30:25;13.93;;;7.30;;
74612;SDS011;63119;51.788;8.824;2023-04-09T13:32:50;14.67;;;7.40;;
74612;SDS011;63119;51.788;8.824;2023-04-09T13:35:16;15.00;;;7.87;;
74612;SDS011;63119;51.788;8.824;2023-04-09T13:37:42;13.70;;;7.15;;
74612;SDS011;63119;51.788;8.824;2023-04-09T13:40:08;14.77;;;8.00;;
74612;SDS011;63119;51.788;8.824;2023-04-09T13:42:33;17.20;;;7.63;;
74612;SDS011;63119;51.788;8.824;2023-04-09T13:45:00;15.45;;;8.20;;
74612;SDS011;63119;51.788;8.824;2023-04-09T13:47:25;15.90;;;8.03;;
74612;SDS011;63119;51.788;8.824;2023-04-09T13:49:51;16.05;;;8.07;;
74612;SDS011;63119;51.788;8.824;2023-04-09T13:52:17;13.13;;;7.10;;
74612;SDS011;63119;51.788;8.824;2023-04-09T13:54:42;15.10;;;8.13;;
74612;SDS011;63119;51.788;8.824;2023-04-09T13:57:07;13.23;;;7.23;;
74612;SDS011;63119;51.788;8.824;2023-04-09T13:59:34;13.07;;;7.63;;
74612;SDS011;63119;51.788;8.824;2023-04-09T14:02:00;14.50;;;8.00;;
74612;SDS011;63119;51.788;8.824;2023-04-09T14:04:25;13.90;;;7.47;;
74612;SDS011;63119;51.788;8.824;2023-04-09T14:06:50;15.17;;;8.13;;
74612;SDS011;63119;51.788;8.824;2023-04-09T14:09:16;13.90;;;7.00;;
74612;SDS011;63119;51.788;8.824;2023-04-09T14:11:41;13.87;;;7.67;;
74612;SDS011;63119;51.788;8.824;2023-04-09T14:14:06;11.47;;;6.40;;
74612;SDS011;63119;51.788;8.824;2023-04-09T14:16:31;11.40;;;6.30;;
74612;SDS011;63119;51.788;8.824;2023-04-09T14:18:56;11.53;;;6.40;;
74612;SDS011;63119;51.788;8.824;2023-04-09T14:21:22;14.30;;;7.47;;
74612;SDS011;63119;51.788;8.824;2023-04-09T14:23:48;13.80;;;6.47;;
74612;SDS011;63119;51.788;8.824;2023-04-09T14:26:13;14.27;;;6.55;;
74612;SDS011;63119;51.788;8.824;2023-04-09T14:28:40;12.35;;;6.63;;
74612;SDS011;63119;51.788;8.824;2023-04-09T14:31:05;12.13;;;6.63;;
74612;SDS011;63119;51.788;8.824;2023-04-09T14:33:30;10.98;;;6.40;;
74612;SDS011;63119;51.788;8.824;2023-04-09T14:35:56;12.60;;;6.87;;
74612;SDS011;63119;51.788;8.824;2023-04-09T14:38:22;13.93;;;7.28;;
74612;SDS011;63119;51.788;8.824;2023-04-09T14:40:48;11.50;;;6.95;;